TAP1908 LPFR-LPPT
Flight info
| Callsign | TAP1908 |
|---|---|
| Flight time | 0h 26m |
| Altitude | 24000 |
| Route | ODEMI DCT VATZI |
| Aircraft | A319/M-SDE3FGHIJ1RWXYZ/LB1 |
Departure
| Time | 2026-04-28 13:28 |
|---|---|
| Airport | Faro - Gago Coutinho International Airport (LPFR) |
Arrival
| Time | 2026-04-28 13:54 |
|---|---|
| Airport | Lisbon Humberto Delgado Airport (LPPT) |
| Time | Latitude | Longitude | Altitude | Speed | Heading |
|---|---|---|---|---|---|
| 2026-04-28 12:54 | 37.01926 | -7.96908 | 21 ft | 0 kts | 9° |
| 2026-04-28 13:16 | 37.01924 | -7.96908 | 20 ft | 3 kts | 9° |
| 2026-04-28 13:17 | 37.01897 | -7.96912 | 4 ft | 4 kts | 359° |
| 2026-04-28 13:17 | 37.01870 | -7.96909 | 20 ft | 4 kts | 345° |
| 2026-04-28 13:17 | 37.01846 | -7.96896 | 20 ft | 4 kts | 317° |
| 2026-04-28 13:17 | 37.01837 | -7.96884 | 22 ft | 4 kts | 281° |
| 2026-04-28 13:18 | 37.01843 | -7.96906 | 20 ft | 0 kts | 293° |
| 2026-04-28 13:21 | 37.01843 | -7.96907 | 20 ft | 1 kts | 291° |
| 2026-04-28 13:21 | 37.01841 | -7.96920 | 22 ft | 3 kts | 257° |
| 2026-04-28 13:22 | 37.01820 | -7.96932 | 20 ft | 4 kts | 180° |
| 2026-04-28 13:22 | 37.01790 | -7.96919 | 22 ft | 6 kts | 159° |
| 2026-04-28 13:22 | 37.01741 | -7.96901 | 20 ft | 9 kts | 174° |
| 2026-04-28 13:22 | 37.01687 | -7.96938 | 21 ft | 10 kts | 243° |
| 2026-04-28 13:23 | 37.01689 | -7.97023 | 21 ft | 10 kts | 279° |
| 2026-04-28 13:23 | 37.01702 | -7.97114 | 23 ft | 11 kts | 280° |
| 2026-04-28 13:23 | 37.01716 | -7.97213 | 22 ft | 12 kts | 280° |
| 2026-04-28 13:23 | 37.01732 | -7.97318 | 20 ft | 13 kts | 280° |
| 2026-04-28 13:24 | 37.01748 | -7.97429 | 20 ft | 13 kts | 280° |
| 2026-04-28 13:24 | 37.01764 | -7.97547 | 20 ft | 15 kts | 279° |
| 2026-04-28 13:24 | 37.01783 | -7.97684 | 20 ft | 16 kts | 280° |
| 2026-04-28 13:24 | 37.01803 | -7.97825 | 21 ft | 17 kts | 280° |
| 2026-04-28 13:25 | 37.01824 | -7.97969 | 20 ft | 17 kts | 280° |
| 2026-04-28 13:25 | 37.01844 | -7.98115 | 21 ft | 17 kts | 279° |
| 2026-04-28 13:25 | 37.01864 | -7.98262 | 21 ft | 17 kts | 280° |
| 2026-04-28 13:25 | 37.01886 | -7.98410 | 21 ft | 15 kts | 280° |
| 2026-04-28 13:26 | 37.01893 | -7.98523 | 20 ft | 11 kts | 251° |
| 2026-04-28 13:26 | 37.01838 | -7.98567 | 21 ft | 7 kts | 190° |
| 2026-04-28 13:26 | 37.01830 | -7.98569 | 22 ft | 0 kts | 190° |
| 2026-04-28 13:27 | 37.01816 | -7.98572 | 21 ft | 4 kts | 190° |
| 2026-04-28 13:27 | 37.01769 | -7.98582 | 22 ft | 9 kts | 189° |
| 2026-04-28 13:27 | 37.01722 | -7.98537 | 24 ft | 11 kts | 103° |
| 2026-04-28 13:27 | 37.01680 | -7.98231 | 22 ft | 73 kts | 101° |
| 2026-04-28 13:28 | 37.01548 | -7.97309 | 20 ft | 139 kts | 100° |
| 2026-04-28 13:28 | 37.01375 | -7.96079 | 546 ft | 146 kts | 100° |
| 2026-04-28 13:28 | 37.01196 | -7.94814 | 1253 ft | 150 kts | 101° |
| 2026-04-28 13:28 | 37.01008 | -7.93507 | 1855 ft | 158 kts | 101° |
| 2026-04-28 13:29 | 37.00797 | -7.92057 | 2270 ft | 180 kts | 101° |
| 2026-04-28 13:29 | 37.00553 | -7.90399 | 2595 ft | 209 kts | 101° |
| 2026-04-28 13:29 | 37.00284 | -7.88589 | 3442 ft | 211 kts | 101° |
| 2026-04-28 13:29 | 37.00011 | -7.86780 | 4392 ft | 212 kts | 101° |
| 2026-04-28 13:30 | 36.99734 | -7.84946 | 5238 ft | 218 kts | 101° |
| 2026-04-28 13:30 | 36.99736 | -7.82960 | 5704 ft | 245 kts | 75° |
| 2026-04-28 13:30 | 37.00706 | -7.81095 | 6198 ft | 273 kts | 39° |
| 2026-04-28 13:30 | 37.02497 | -7.80206 | 6912 ft | 287 kts | 4° |
| 2026-04-28 13:31 | 37.06223 | -7.81950 | 8720 ft | 294 kts | 322° |
| 2026-04-28 13:31 | 37.07841 | -7.83525 | 9721 ft | 296 kts | 317° |
| 2026-04-28 13:31 | 37.09444 | -7.85211 | 10340 ft | 311 kts | 317° |
| 2026-04-28 13:32 | 37.11174 | -7.87012 | 10665 ft | 335 kts | 318° |
| 2026-04-28 13:32 | 37.13052 | -7.88878 | 11166 ft | 350 kts | 320° |
| 2026-04-28 13:32 | 37.15014 | -7.90735 | 11915 ft | 357 kts | 321° |
| 2026-04-28 13:32 | 37.17034 | -7.92583 | 12717 ft | 362 kts | 322° |
| 2026-04-28 13:33 | 37.19095 | -7.94432 | 13520 ft | 367 kts | 322° |
| 2026-04-28 13:33 | 37.21183 | -7.96293 | 14223 ft | 371 kts | 322° |
| 2026-04-28 13:33 | 37.23304 | -7.98182 | 14932 ft | 375 kts | 322° |
| 2026-04-28 13:33 | 37.25439 | -8.00086 | 15654 ft | 378 kts | 322° |
| 2026-04-28 13:34 | 37.27587 | -8.02013 | 16377 ft | 382 kts | 322° |
| 2026-04-28 13:34 | 37.29755 | -8.03968 | 17087 ft | 385 kts | 321° |
| 2026-04-28 13:34 | 37.31909 | -8.05919 | 17771 ft | 389 kts | 321° |
| 2026-04-28 13:34 | 37.34112 | -8.07919 | 18422 ft | 393 kts | 321° |
| 2026-04-28 13:35 | 37.36336 | -8.09938 | 19015 ft | 396 kts | 321° |
| 2026-04-28 13:35 | 37.38581 | -8.11973 | 19603 ft | 400 kts | 322° |
| 2026-04-28 13:35 | 37.40852 | -8.14030 | 20199 ft | 404 kts | 322° |
| 2026-04-28 13:35 | 37.43141 | -8.16106 | 20801 ft | 407 kts | 322° |
| 2026-04-28 13:36 | 37.45451 | -8.18205 | 21392 ft | 411 kts | 322° |
| 2026-04-28 13:36 | 37.47780 | -8.20325 | 21963 ft | 415 kts | 322° |
| 2026-04-28 13:36 | 37.50123 | -8.22458 | 22523 ft | 418 kts | 322° |
| 2026-04-28 13:36 | 37.52497 | -8.24620 | 23074 ft | 422 kts | 322° |
| 2026-04-28 13:37 | 37.54884 | -8.26793 | 23585 ft | 425 kts | 322° |
| 2026-04-28 13:37 | 37.57289 | -8.28984 | 23835 ft | 427 kts | 322° |
| 2026-04-28 13:37 | 37.59700 | -8.31182 | 23895 ft | 429 kts | 322° |
| 2026-04-28 13:37 | 37.62118 | -8.33393 | 23904 ft | 430 kts | 322° |
| 2026-04-28 13:38 | 37.64541 | -8.35610 | 23904 ft | 430 kts | 322° |
| 2026-04-28 13:38 | 37.66965 | -8.37828 | 23906 ft | 430 kts | 322° |
| 2026-04-28 13:38 | 37.69389 | -8.40046 | 23903 ft | 430 kts | 322° |
| 2026-04-28 13:38 | 37.71800 | -8.42253 | 23903 ft | 428 kts | 322° |
| 2026-04-28 13:39 | 37.74206 | -8.44460 | 23630 ft | 427 kts | 322° |
| 2026-04-28 13:39 | 37.76631 | -8.46690 | 22437 ft | 436 kts | 322° |
| 2026-04-28 13:39 | 37.79089 | -8.48951 | 21580 ft | 437 kts | 322° |
| 2026-04-28 13:39 | 37.81535 | -8.51203 | 20869 ft | 434 kts | 322° |
| 2026-04-28 13:40 | 37.83959 | -8.53435 | 20361 ft | 427 kts | 322° |
| 2026-04-28 13:40 | 37.86315 | -8.55605 | 19857 ft | 422 kts | 322° |
| 2026-04-28 13:40 | 37.88677 | -8.57780 | 19352 ft | 418 kts | 322° |
| 2026-04-28 13:40 | 37.91014 | -8.59934 | 18837 ft | 415 kts | 322° |
| 2026-04-28 13:41 | 37.93342 | -8.62082 | 18321 ft | 413 kts | 322° |
| 2026-04-28 13:41 | 37.95658 | -8.64224 | 17742 ft | 411 kts | 322° |
| 2026-04-28 13:41 | 37.97951 | -8.66348 | 17210 ft | 407 kts | 322° |
| 2026-04-28 13:41 | 38.00229 | -8.68460 | 16672 ft | 404 kts | 322° |
| 2026-04-28 13:42 | 38.02486 | -8.70553 | 16137 ft | 400 kts | 322° |
| 2026-04-28 13:42 | 38.04724 | -8.72627 | 15601 ft | 397 kts | 322° |
| 2026-04-28 13:42 | 38.06948 | -8.74687 | 15069 ft | 394 kts | 322° |
| 2026-04-28 13:42 | 38.09155 | -8.76735 | 14544 ft | 391 kts | 322° |
| 2026-04-28 13:43 | 38.11340 | -8.78768 | 14001 ft | 388 kts | 322° |
| 2026-04-28 13:43 | 38.13509 | -8.80788 | 13441 ft | 385 kts | 322° |
| 2026-04-28 13:43 | 38.15651 | -8.82783 | 12891 ft | 380 kts | 322° |
| 2026-04-28 13:43 | 38.17766 | -8.84752 | 12364 ft | 374 kts | 322° |
| 2026-04-28 13:44 | 38.19851 | -8.86694 | 11824 ft | 369 kts | 322° |
| 2026-04-28 13:44 | 38.21907 | -8.88609 | 11288 ft | 364 kts | 322° |
| 2026-04-28 13:44 | 38.23939 | -8.90506 | 10743 ft | 360 kts | 322° |
| 2026-04-28 13:44 | 38.25935 | -8.92372 | 10431 ft | 350 kts | 323° |
| 2026-04-28 13:45 | 38.27853 | -8.94163 | 10313 ft | 334 kts | 323° |
| 2026-04-28 13:45 | 38.29686 | -8.95873 | 10184 ft | 318 kts | 323° |
| 2026-04-28 13:45 | 38.31420 | -8.97492 | 9937 ft | 301 kts | 323° |
| 2026-04-28 13:45 | 38.33092 | -8.99055 | 9818 ft | 297 kts | 323° |
| 2026-04-28 13:46 | 38.34752 | -9.00612 | 9486 ft | 295 kts | 323° |
| 2026-04-28 13:46 | 38.36396 | -9.02157 | 9120 ft | 293 kts | 323° |
| 2026-04-28 13:46 | 38.38023 | -9.03688 | 8898 ft | 289 kts | 323° |
| 2026-04-28 13:46 | 38.39668 | -9.05236 | 8352 ft | 295 kts | 323° |
| 2026-04-28 13:47 | 38.40752 | -9.06255 | 8156 ft | 291 kts | 323° |
| 2026-04-28 13:47 | 38.42637 | -9.08026 | 7681 ft | 289 kts | 323° |
| 2026-04-28 13:47 | 38.44245 | -9.09541 | 7289 ft | 287 kts | 323° |
| 2026-04-28 13:47 | 38.45820 | -9.11023 | 7135 ft | 274 kts | 323° |
| 2026-04-28 13:48 | 38.47310 | -9.12425 | 6889 ft | 261 kts | 323° |
| 2026-04-28 13:48 | 38.48751 | -9.13777 | 6529 ft | 252 kts | 324° |
| 2026-04-28 13:48 | 38.50143 | -9.15087 | 6139 ft | 245 kts | 324° |
| 2026-04-28 13:48 | 38.51491 | -9.16359 | 5784 ft | 239 kts | 323° |
| 2026-04-28 13:49 | 38.52826 | -9.17617 | 5450 ft | 237 kts | 323° |
| 2026-04-28 13:49 | 38.54140 | -9.18862 | 5179 ft | 233 kts | 323° |
| 2026-04-28 13:49 | 38.55435 | -9.20088 | 4887 ft | 230 kts | 323° |
| 2026-04-28 13:49 | 38.56714 | -9.21298 | 4605 ft | 228 kts | 323° |
| 2026-04-28 13:50 | 38.57991 | -9.22491 | 4288 ft | 227 kts | 326° |
| 2026-04-28 13:50 | 38.59482 | -9.23137 | 3891 ft | 229 kts | 358° |
| 2026-04-28 13:50 | 38.61017 | -9.22738 | 3617 ft | 226 kts | 21° |
| 2026-04-28 13:50 | 38.62460 | -9.21964 | 3327 ft | 224 kts | 22° |
| 2026-04-28 13:51 | 38.63891 | -9.21194 | 3036 ft | 221 kts | 22° |
| 2026-04-28 13:51 | 38.64834 | -9.20690 | 2834 ft | 214 kts | 22° |
| 2026-04-28 13:51 | 38.66158 | -9.19985 | 2571 ft | 204 kts | 23° |
| 2026-04-28 13:51 | 38.67447 | -9.19298 | 2315 ft | 194 kts | 23° |
| 2026-04-28 13:52 | 38.68649 | -9.18658 | 2049 ft | 181 kts | 23° |
| 2026-04-28 13:52 | 38.69740 | -9.18076 | 1827 ft | 162 kts | 23° |
| 2026-04-28 13:52 | 38.70746 | -9.17540 | 1615 ft | 148 kts | 22° |
| 2026-04-28 13:52 | 38.71671 | -9.17046 | 1423 ft | 142 kts | 22° |
| 2026-04-28 13:53 | 38.72557 | -9.16573 | 1251 ft | 138 kts | 22° |
| 2026-04-28 13:53 | 38.73450 | -9.16097 | 1060 ft | 136 kts | 24° |
| 2026-04-28 13:53 | 38.74316 | -9.15634 | 884 ft | 134 kts | 25° |
| 2026-04-28 13:53 | 38.75164 | -9.15186 | 715 ft | 131 kts | 25° |
| 2026-04-28 13:54 | 38.75995 | -9.14737 | 525 ft | 132 kts | 26° |
| 2026-04-28 13:54 | 38.76832 | -9.14287 | 376 ft | 129 kts | 25° |
| 2026-04-28 13:54 | 38.77583 | -9.13885 | 354 ft | 97 kts | 23° |
| 2026-04-28 13:54 | 38.78048 | -9.13636 | 358 ft | 48 kts | 23° |
| 2026-04-28 13:55 | 38.78266 | -9.13493 | 354 ft | 29 kts | 41° |
| 2026-04-28 13:55 | 38.78379 | -9.13322 | 355 ft | 21 kts | 81° |
| 2026-04-28 13:55 | 38.78296 | -9.13274 | 356 ft | 14 kts | 204° |
| 2026-04-28 13:55 | 38.78203 | -9.13326 | 354 ft | 15 kts | 203° |
| 2026-04-28 13:56 | 38.78106 | -9.13378 | 352 ft | 14 kts | 202° |
| 2026-04-28 13:56 | 38.78013 | -9.13413 | 352 ft | 14 kts | 176° |
| 2026-04-28 13:56 | 38.77913 | -9.13388 | 355 ft | 15 kts | 168° |
| 2026-04-28 13:56 | 38.77806 | -9.13359 | 352 ft | 16 kts | 168° |
| 2026-04-28 13:57 | 38.77694 | -9.13330 | 352 ft | 15 kts | 168° |
| 2026-04-28 13:57 | 38.77585 | -9.13318 | 355 ft | 16 kts | 176° |
| 2026-04-28 13:57 | 38.77472 | -9.13291 | 351 ft | 17 kts | 168° |
| 2026-04-28 13:57 | 38.77368 | -9.13265 | 351 ft | 16 kts | 170° |
| 2026-04-28 13:58 | 38.77260 | -9.13240 | 351 ft | 13 kts | 168° |
| 2026-04-28 13:58 | 38.77184 | -9.13221 | 356 ft | 10 kts | 169° |
| 2026-04-28 13:58 | 38.77151 | -9.13196 | 357 ft | 4 kts | 92° |
| 2026-04-28 13:58 | 38.77156 | -9.13158 | 351 ft | 4 kts | 77° |
| 2026-04-28 13:59 | 38.77160 | -9.13135 | 355 ft | 2 kts | 78° |
| 2026-04-28 13:59 | 38.77160 | -9.13131 | 356 ft | 0 kts | 78° |